sensor_id;sensor_type;location;lat;lon;timestamp;temperature;humidity
64888;DHT22;51386;53.082;8.816;2024-02-26T00:00:00;7.30;95.30
64888;DHT22;51386;53.082;8.816;2024-02-26T00:02:28;7.30;95.50
64888;DHT22;51386;53.082;8.816;2024-02-26T00:04:57;7.30;95.60
64888;DHT22;51386;53.082;8.816;2024-02-26T00:07:25;7.20;95.80
64888;DHT22;51386;53.082;8.816;2024-02-26T00:09:53;7.30;95.80
64888;DHT22;51386;53.082;8.816;2024-02-26T00:12:22;7.30;95.60
64888;DHT22;51386;53.082;8.816;2024-02-26T00:14:50;7.30;95.40
64888;DHT22;51386;53.082;8.816;2024-02-26T00:17:20;7.30;95.60
64888;DHT22;51386;53.082;8.816;2024-02-26T00:19:49;7.30;95.60
64888;DHT22;51386;53.082;8.816;2024-02-26T00:22:17;7.30;95.50
64888;DHT22;51386;53.082;8.816;2024-02-26T00:24:45;7.30;95.50
64888;DHT22;51386;53.082;8.816;2024-02-26T00:27:14;7.30;95.60
64888;DHT22;51386;53.082;8.816;2024-02-26T00:29:42;7.30;95.60
64888;DHT22;51386;53.082;8.816;2024-02-26T00:32:11;7.30;95.60
64888;DHT22;51386;53.082;8.816;2024-02-26T00:34:39;7.30;95.50
64888;DHT22;51386;53.082;8.816;2024-02-26T00:37:07;7.30;95.60
64888;DHT22;51386;53.082;8.816;2024-02-26T00:39:36;7.30;95.40
64888;DHT22;51386;53.082;8.816;2024-02-26T00:42:04;7.30;95.40
64888;DHT22;51386;53.082;8.816;2024-02-26T00:44:33;7.30;95.50
64888;DHT22;51386;53.082;8.816;2024-02-26T00:47:01;7.30;95.30
64888;DHT22;51386;53.082;8.816;2024-02-26T00:49:30;7.30;95.00
64888;DHT22;51386;53.082;8.816;2024-02-26T00:51:58;7.20;94.90
64888;DHT22;51386;53.082;8.816;2024-02-26T00:54:26;7.20;95.10
64888;DHT22;51386;53.082;8.816;2024-02-26T00:56:55;7.10;95.20
64888;DHT22;51386;53.082;8.816;2024-02-26T00:59:23;7.00;95.40
64888;DHT22;51386;53.082;8.816;2024-02-26T01:01:52;7.00;95.30
64888;DHT22;51386;53.082;8.816;2024-02-26T01:04:20;7.00;95.60
64888;DHT22;51386;53.082;8.816;2024-02-26T01:06:48;7.00;95.20
64888;DHT22;51386;53.082;8.816;2024-02-26T01:09:17;6.90;95.20
64888;DHT22;51386;53.082;8.816;2024-02-26T01:11:46;6.90;95.20
64888;DHT22;51386;53.082;8.816;2024-02-26T01:14:14;6.90;95.30
64888;DHT22;51386;53.082;8.816;2024-02-26T01:16:43;6.80;95.30
64888;DHT22;51386;53.082;8.816;2024-02-26T01:19:11;6.80;95.30
64888;DHT22;51386;53.082;8.816;2024-02-26T01:21:40;6.80;95.20
64888;DHT22;51386;53.082;8.816;2024-02-26T01:24:08;6.70;95.10
64888;DHT22;51386;53.082;8.816;2024-02-26T01:26:37;6.70;95.60
64888;DHT22;51386;53.082;8.816;2024-02-26T01:29:05;6.70;95.70
64888;DHT22;51386;53.082;8.816;2024-02-26T01:31:33;6.70;95.70
64888;DHT22;51386;53.082;8.816;2024-02-26T01:34:02;6.70;95.70
64888;DHT22;51386;53.082;8.816;2024-02-26T01:36:31;6.70;95.70
64888;DHT22;51386;53.082;8.816;2024-02-26T01:38:59;6.70;95.60
64888;DHT22;51386;53.082;8.816;2024-02-26T01:41:27;6.70;95.50
64888;DHT22;51386;53.082;8.816;2024-02-26T01:43:56;6.70;95.40
64888;DHT22;51386;53.082;8.816;2024-02-26T01:46:24;6.70;95.80
64888;DHT22;51386;53.082;8.816;2024-02-26T01:48:53;6.70;95.70
64888;DHT22;51386;53.082;8.816;2024-02-26T01:51:22;6.70;95.60
64888;DHT22;51386;53.082;8.816;2024-02-26T01:53:51;6.70;95.40
64888;DHT22;51386;53.082;8.816;2024-02-26T01:56:20;6.80;95.30
64888;DHT22;51386;53.082;8.816;2024-02-26T01:58:50;6.80;95.40
64888;DHT22;51386;53.082;8.816;2024-02-26T02:01:20;6.80;95.50
64888;DHT22;51386;53.082;8.816;2024-02-26T02:03:51;6.80;95.30
64888;DHT22;51386;53.082;8.816;2024-02-26T02:06:20;6.80;95.30
64888;DHT22;51386;53.082;8.816;2024-02-26T02:08:49;6.80;95.20
64888;DHT22;51386;53.082;8.816;2024-02-26T02:11:18;6.90;95.00
64888;DHT22;51386;53.082;8.816;2024-02-26T02:13:47;6.80;95.10
64888;DHT22;51386;53.082;8.816;2024-02-26T02:16:15;6.90;95.20
64888;DHT22;51386;53.082;8.816;2024-02-26T02:18:44;6.90;94.90
64888;DHT22;51386;53.082;8.816;2024-02-26T02:21:12;6.90;94.70
64888;DHT22;51386;53.082;8.816;2024-02-26T02:23:41;6.90;94.60
64888;DHT22;51386;53.082;8.816;2024-02-26T02:26:14;6.80;94.30
64888;DHT22;51386;53.082;8.816;2024-02-26T02:28:43;6.80;94.70
64888;DHT22;51386;53.082;8.816;2024-02-26T02:31:13;6.80;94.90
64888;DHT22;51386;53.082;8.816;2024-02-26T02:33:43;6.80;94.80
64888;DHT22;51386;53.082;8.816;2024-02-26T02:36:11;6.70;94.60
64888;DHT22;51386;53.082;8.816;2024-02-26T02:38:49;6.70;94.70
64888;DHT22;51386;53.082;8.816;2024-02-26T02:41:18;6.70;94.30
64888;DHT22;51386;53.082;8.816;2024-02-26T02:43:47;6.60;94.30
64888;DHT22;51386;53.082;8.816;2024-02-26T02:46:15;6.60;94.20
64888;DHT22;51386;53.082;8.816;2024-02-26T02:48:44;6.50;94.30
64888;DHT22;51386;53.082;8.816;2024-02-26T02:51:12;6.30;93.90
64888;DHT22;51386;53.082;8.816;2024-02-26T02:53:41;6.20;93.90
64888;DHT22;51386;53.082;8.816;2024-02-26T02:56:09;6.10;94.00
64888;DHT22;51386;53.082;8.816;2024-02-26T02:58:37;6.00;94.60
64888;DHT22;51386;53.082;8.816;2024-02-26T03:01:06;6.00;95.10
64888;DHT22;51386;53.082;8.816;2024-02-26T03:03:34;6.00;94.90
64888;DHT22;51386;53.082;8.816;2024-02-26T03:06:04;5.90;94.70
64888;DHT22;51386;53.082;8.816;2024-02-26T03:08:33;5.80;94.70
64888;DHT22;51386;53.082;8.816;2024-02-26T03:11:05;5.70;94.70
64888;DHT22;51386;53.082;8.816;2024-02-26T03:13:33;5.70;95.00
64888;DHT22;51386;53.082;8.816;2024-02-26T03:16:05;5.70;95.50
64888;DHT22;51386;53.082;8.816;2024-02-26T03:18:34;5.70;96.10
64888;DHT22;51386;53.082;8.816;2024-02-26T03:21:03;5.70;96.00
64888;DHT22;51386;53.082;8.816;2024-02-26T03:23:32;5.80;95.90
64888;DHT22;51386;53.082;8.816;2024-02-26T03:26:04;5.80;95.60
64888;DHT22;51386;53.082;8.816;2024-02-26T03:28:32;5.80;95.60
64888;DHT22;51386;53.082;8.816;2024-02-26T03:31:01;5.90;95.90
64888;DHT22;51386;53.082;8.816;2024-02-26T03:33:30;5.90;95.80
64888;DHT22;51386;53.082;8.816;2024-02-26T03:35:58;6.00;95.60
64888;DHT22;51386;53.082;8.816;2024-02-26T03:38:27;6.00;95.20
64888;DHT22;51386;53.082;8.816;2024-02-26T03:40:56;6.10;95.20
64888;DHT22;51386;53.082;8.816;2024-02-26T03:43:24;6.10;94.90
64888;DHT22;51386;53.082;8.816;2024-02-26T03:45:53;6.00;94.70
64888;DHT22;51386;53.082;8.816;2024-02-26T03:48:21;6.00;95.10
64888;DHT22;51386;53.082;8.816;2024-02-26T03:50:50;6.00;95.10
64888;DHT22;51386;53.082;8.816;2024-02-26T03:53:18;6.00;95.10
64888;DHT22;51386;53.082;8.816;2024-02-26T03:55:47;5.90;94.70
64888;DHT22;51386;53.082;8.816;2024-02-26T03:58:15;5.90;94.50
64888;DHT22;51386;53.082;8.816;2024-02-26T04:00:43;5.90;95.10
64888;DHT22;51386;53.082;8.816;2024-02-26T04:03:12;5.80;95.00
64888;DHT22;51386;53.082;8.816;2024-02-26T04:05:41;5.80;94.90
64888;DHT22;51386;53.082;8.816;2024-02-26T04:08:10;5.70;94.70
64888;DHT22;51386;53.082;8.816;2024-02-26T04:10:38;5.70;94.60
64888;DHT22;51386;53.082;8.816;2024-02-26T04:13:07;5.60;94.60
64888;DHT22;51386;53.082;8.816;2024-02-26T04:15:36;5.50;95.10
64888;DHT22;51386;53.082;8.816;2024-02-26T04:18:05;5.50;95.70
64888;DHT22;51386;53.082;8.816;2024-02-26T04:20:33;5.60;95.60
64888;DHT22;51386;53.082;8.816;2024-02-26T04:23:03;5.60;95.30
64888;DHT22;51386;53.082;8.816;2024-02-26T04:25:32;5.60;95.40
64888;DHT22;51386;53.082;8.816;2024-02-26T04:28:00;5.60;95.50
64888;DHT22;51386;53.082;8.816;2024-02-26T04:30:28;5.60;95.50
64888;DHT22;51386;53.082;8.816;2024-02-26T04:32:57;5.60;95.40
64888;DHT22;51386;53.082;8.816;2024-02-26T04:35:25;5.60;95.30
64888;DHT22;51386;53.082;8.816;2024-02-26T04:37:54;5.60;95.60
64888;DHT22;51386;53.082;8.816;2024-02-26T04:40:22;5.70;95.70
64888;DHT22;51386;53.082;8.816;2024-02-26T04:42:51;5.70;95.40
64888;DHT22;51386;53.082;8.816;2024-02-26T04:45:20;5.80;95.20
64888;DHT22;51386;53.082;8.816;2024-02-26T04:47:48;5.80;95.40
64888;DHT22;51386;53.082;8.816;2024-02-26T04:50:17;5.80;95.20
64888;DHT22;51386;53.082;8.816;2024-02-26T04:52:45;5.90;95.10
64888;DHT22;51386;53.082;8.816;2024-02-26T04:55:14;5.90;95.00
64888;DHT22;51386;53.082;8.816;2024-02-26T04:57:42;5.90;95.30
64888;DHT22;51386;53.082;8.816;2024-02-26T05:00:12;5.90;95.30
64888;DHT22;51386;53.082;8.816;2024-02-26T05:02:41;6.00;95.20
64888;DHT22;51386;53.082;8.816;2024-02-26T05:05:10;6.00;95.00
64888;DHT22;51386;53.082;8.816;2024-02-26T05:07:41;6.00;94.90
64888;DHT22;51386;53.082;8.816;2024-02-26T05:10:10;6.10;94.90
64888;DHT22;51386;53.082;8.816;2024-02-26T05:12:38;6.10;94.90
64888;DHT22;51386;53.082;8.816;2024-02-26T05:15:09;6.10;94.70
64888;DHT22;51386;53.082;8.816;2024-02-26T05:17:38;6.10;94.50
64888;DHT22;51386;53.082;8.816;2024-02-26T05:20:07;6.10;94.30
64888;DHT22;51386;53.082;8.816;2024-02-26T05:22:36;6.00;94.40
64888;DHT22;51386;53.082;8.816;2024-02-26T05:25:05;6.00;94.70
64888;DHT22;51386;53.082;8.816;2024-02-26T05:27:34;6.00;94.80
64888;DHT22;51386;53.082;8.816;2024-02-26T05:30:02;6.00;94.80
64888;DHT22;51386;53.082;8.816;2024-02-26T05:32:31;6.00;94.70
64888;DHT22;51386;53.082;8.816;2024-02-26T05:34:59;6.00;94.60
64888;DHT22;51386;53.082;8.816;2024-02-26T05:37:28;6.00;94.50
64888;DHT22;51386;53.082;8.816;2024-02-26T05:39:56;6.00;94.50
64888;DHT22;51386;53.082;8.816;2024-02-26T05:42:26;6.00;94.60
64888;DHT22;51386;53.082;8.816;2024-02-26T05:44:54;6.00;94.50
64888;DHT22;51386;53.082;8.816;2024-02-26T05:47:22;5.90;94.40
64888;DHT22;51386;53.082;8.816;2024-02-26T05:49:51;5.90;94.30
64888;DHT22;51386;53.082;8.816;2024-02-26T05:52:19;5.90;94.50
64888;DHT22;51386;53.082;8.816;2024-02-26T05:54:52;5.90;94.90
64888;DHT22;51386;53.082;8.816;2024-02-26T05:57:20;5.90;95.10
64888;DHT22;51386;53.082;8.816;2024-02-26T05:59:49;5.90;95.00
64888;DHT22;51386;53.082;8.816;2024-02-26T06:02:17;5.90;94.90
64888;DHT22;51386;53.082;8.816;2024-02-26T06:04:46;6.00;95.00
64888;DHT22;51386;53.082;8.816;2024-02-26T06:07:14;6.00;95.00
64888;DHT22;51386;53.082;8.816;2024-02-26T06:09:43;6.00;95.00
64888;DHT22;51386;53.082;8.816;2024-02-26T06:12:11;6.10;94.90
64888;DHT22;51386;53.082;8.816;2024-02-26T06:14:41;6.10;94.90
64888;DHT22;51386;53.082;8.816;2024-02-26T06:17:10;6.10;94.70
64888;DHT22;51386;53.082;8.816;2024-02-26T06:19:39;6.10;94.80
64888;DHT22;51386;53.082;8.816;2024-02-26T06:22:07;6.10;94.80
64888;DHT22;51386;53.082;8.816;2024-02-26T06:24:35;6.10;95.00
64888;DHT22;51386;53.082;8.816;2024-02-26T06:27:04;6.10;95.00
64888;DHT22;51386;53.082;8.816;2024-02-26T06:29:33;6.10;95.00
64888;DHT22;51386;53.082;8.816;2024-02-26T06:32:01;6.10;94.80
64888;DHT22;51386;53.082;8.816;2024-02-26T06:34:30;6.20;94.90
64888;DHT22;51386;53.082;8.816;2024-02-26T06:36:58;6.20;94.90
64888;DHT22;51386;53.082;8.816;2024-02-26T06:39:27;6.20;94.80
64888;DHT22;51386;53.082;8.816;2024-02-26T06:41:55;6.20;94.80
64888;DHT22;51386;53.082;8.816;2024-02-26T06:44:28;6.20;94.70
64888;DHT22;51386;53.082;8.816;2024-02-26T06:46:59;6.20;94.70
64888;DHT22;51386;53.082;8.816;2024-02-26T06:49:28;6.30;95.00
64888;DHT22;51386;53.082;8.816;2024-02-26T06:51:57;6.30;94.70
64888;DHT22;51386;53.082;8.816;2024-02-26T06:54:26;6.30;94.70
64888;DHT22;51386;53.082;8.816;2024-02-26T06:56:55;6.30;94.60
64888;DHT22;51386;53.082;8.816;2024-02-26T06:59:23;6.30;94.70
64888;DHT22;51386;53.082;8.816;2024-02-26T07:01:52;6.30;94.80
64888;DHT22;51386;53.082;8.816;2024-02-26T07:04:21;6.30;95.00
64888;DHT22;51386;53.082;8.816;2024-02-26T07:06:50;6.30;95.10
64888;DHT22;51386;53.082;8.816;2024-02-26T07:09:18;6.40;95.10
64888;DHT22;51386;53.082;8.816;2024-02-26T07:11:47;6.40;95.00
64888;DHT22;51386;53.082;8.816;2024-02-26T07:14:15;6.40;94.80
64888;DHT22;51386;53.082;8.816;2024-02-26T07:16:43;6.50;94.60
64888;DHT22;51386;53.082;8.816;2024-02-26T07:19:12;6.40;94.60
64888;DHT22;51386;53.082;8.816;2024-02-26T07:21:40;6.40;94.60
64888;DHT22;51386;53.082;8.816;2024-02-26T07:24:09;6.30;94.60
64888;DHT22;51386;53.082;8.816;2024-02-26T07:26:37;6.30;94.80
64888;DHT22;51386;53.082;8.816;2024-02-26T07:29:06;6.40;95.20
64888;DHT22;51386;53.082;8.816;2024-02-26T07:31:34;6.40;95.20
64888;DHT22;51386;53.082;8.816;2024-02-26T07:34:02;6.40;95.20
64888;DHT22;51386;53.082;8.816;2024-02-26T07:36:31;6.50;95.00
64888;DHT22;51386;53.082;8.816;2024-02-26T07:39:00;6.50;95.10
64888;DHT22;51386;53.082;8.816;2024-02-26T07:41:29;6.50;95.10
64888;DHT22;51386;53.082;8.816;2024-02-26T07:43:57;6.50;95.20
64888;DHT22;51386;53.082;8.816;2024-02-26T07:46:26;6.60;95.20
64888;DHT22;51386;53.082;8.816;2024-02-26T07:48:54;6.70;95.10
64888;DHT22;51386;53.082;8.816;2024-02-26T07:51:23;6.70;95.00
64888;DHT22;51386;53.082;8.816;2024-02-26T07:53:52;6.70;95.00
64888;DHT22;51386;53.082;8.816;2024-02-26T07:56:20;6.70;95.10
64888;DHT22;51386;53.082;8.816;2024-02-26T07:58:49;6.90;95.10
64888;DHT22;51386;53.082;8.816;2024-02-26T08:01:17;6.90;95.10
64888;DHT22;51386;53.082;8.816;2024-02-26T08:03:46;6.90;94.90
64888;DHT22;51386;53.082;8.816;2024-02-26T08:06:16;6.90;94.90
64888;DHT22;51386;53.082;8.816;2024-02-26T08:08:44;7.00;94.90
64888;DHT22;51386;53.082;8.816;2024-02-26T08:11:16;7.00;94.90
64888;DHT22;51386;53.082;8.816;2024-02-26T08:13:44;7.10;94.60
64888;DHT22;51386;53.082;8.816;2024-02-26T08:16:13;7.10;94.80
64888;DHT22;51386;53.082;8.816;2024-02-26T08:18:41;7.10;94.80
64888;DHT22;51386;53.082;8.816;2024-02-26T08:21:10;7.10;94.70
64888;DHT22;51386;53.082;8.816;2024-02-26T08:23:38;7.10;94.70
64888;DHT22;51386;53.082;8.816;2024-02-26T08:26:06;7.10;94.70
64888;DHT22;51386;53.082;8.816;2024-02-26T08:28:38;7.20;94.70
64888;DHT22;51386;53.082;8.816;2024-02-26T08:31:06;7.20;94.70
64888;DHT22;51386;53.082;8.816;2024-02-26T08:33:36;7.20;94.80
64888;DHT22;51386;53.082;8.816;2024-02-26T08:36:05;7.30;94.80
64888;DHT22;51386;53.082;8.816;2024-02-26T08:38:34;7.30;94.60
64888;DHT22;51386;53.082;8.816;2024-02-26T08:41:04;7.30;94.60
64888;DHT22;51386;53.082;8.816;2024-02-26T08:43:32;7.40;94.60
64888;DHT22;51386;53.082;8.816;2024-02-26T08:46:01;7.40;94.60
64888;DHT22;51386;53.082;8.816;2024-02-26T08:48:29;7.40;94.70
64888;DHT22;51386;53.082;8.816;2024-02-26T08:50:58;7.50;94.70
64888;DHT22;51386;53.082;8.816;2024-02-26T08:53:26;7.50;94.70
64888;DHT22;51386;53.082;8.816;2024-02-26T08:56:07;7.60;94.70
64888;DHT22;51386;53.082;8.816;2024-02-26T08:58:36;7.60;94.60
64888;DHT22;51386;53.082;8.816;2024-02-26T09:01:04;7.60;94.50
64888;DHT22;51386;53.082;8.816;2024-02-26T09:03:33;7.70;94.90
64888;DHT22;51386;53.082;8.816;2024-02-26T09:06:02;7.80;94.70
64888;DHT22;51386;53.082;8.816;2024-02-26T09:08:30;7.80;94.50
64888;DHT22;51386;53.082;8.816;2024-02-26T09:10:58;7.90;94.50
64888;DHT22;51386;53.082;8.816;2024-02-26T09:13:27;8.00;94.40
64888;DHT22;51386;53.082;8.816;2024-02-26T09:15:55;8.00;94.20
64888;DHT22;51386;53.082;8.816;2024-02-26T09:18:24;8.10;94.20
64888;DHT22;51386;53.082;8.816;2024-02-26T09:20:52;8.10;94.20
64888;DHT22;51386;53.082;8.816;2024-02-26T09:23:21;8.20;94.00
64888;DHT22;51386;53.082;8.816;2024-02-26T09:25:49;8.20;94.10
64888;DHT22;51386;53.082;8.816;2024-02-26T09:28:17;8.30;94.00
64888;DHT22;51386;53.082;8.816;2024-02-26T09:30:46;8.30;94.00
64888;DHT22;51386;53.082;8.816;2024-02-26T09:33:14;8.40;93.90
64888;DHT22;51386;53.082;8.816;2024-02-26T09:35:43;8.50;93.60
64888;DHT22;51386;53.082;8.816;2024-02-26T09:38:12;8.50;93.50
64888;DHT22;51386;53.082;8.816;2024-02-26T09:40:40;8.50;93.40
64888;DHT22;51386;53.082;8.816;2024-02-26T09:43:14;8.50;93.40
64888;DHT22;51386;53.082;8.816;2024-02-26T09:45:43;8.50;93.40
64888;DHT22;51386;53.082;8.816;2024-02-26T09:48:12;8.50;93.40
64888;DHT22;51386;53.082;8.816;2024-02-26T09:50:43;8.50;93.40
64888;DHT22;51386;53.082;8.816;2024-02-26T09:53:12;8.60;93.50
64888;DHT22;51386;53.082;8.816;2024-02-26T09:55:42;8.60;93.60
64888;DHT22;51386;53.082;8.816;2024-02-26T09:58:11;8.70;94.00
64888;DHT22;51386;53.082;8.816;2024-02-26T10:00:51;8.80;93.70
64888;DHT22;51386;53.082;8.816;2024-02-26T10:03:31;9.00;93.70
64888;DHT22;51386;53.082;8.816;2024-02-26T10:06:09;9.10;93.50
64888;DHT22;51386;53.082;8.816;2024-02-26T10:08:41;9.20;93.40
64888;DHT22;51386;53.082;8.816;2024-02-26T10:11:11;9.40;93.10
64888;DHT22;51386;53.082;8.816;2024-02-26T10:13:41;9.50;93.00
64888;DHT22;51386;53.082;8.816;2024-02-26T10:16:09;9.60;92.80
64888;DHT22;51386;53.082;8.816;2024-02-26T10:18:51;9.70;92.60
64888;DHT22;51386;53.082;8.816;2024-02-26T10:21:26;9.90;92.40
64888;DHT22;51386;53.082;8.816;2024-02-26T10:23:54;10.00;91.80
64888;DHT22;51386;53.082;8.816;2024-02-26T10:26:23;10.10;91.50
64888;DHT22;51386;53.082;8.816;2024-02-26T10:28:52;10.20;91.30
64888;DHT22;51386;53.082;8.816;2024-02-26T10:31:21;10.30;91.00
64888;DHT22;51386;53.082;8.816;2024-02-26T10:33:50;10.30;90.90
64888;DHT22;51386;53.082;8.816;2024-02-26T10:36:26;10.40;90.90
64888;DHT22;51386;53.082;8.816;2024-02-26T10:39:13;10.40;90.60
64888;DHT22;51386;53.082;8.816;2024-02-26T10:41:43;10.40;90.50
64888;DHT22;51386;53.082;8.816;2024-02-26T10:44:13;10.50;90.40
64888;DHT22;51386;53.082;8.816;2024-02-26T10:46:46;10.50;90.60
64888;DHT22;51386;53.082;8.816;2024-02-26T10:49:17;10.60;90.70
64888;DHT22;51386;53.082;8.816;2024-02-26T10:51:54;10.80;90.90
64888;DHT22;51386;53.082;8.816;2024-02-26T10:54:26;10.90;90.80
64888;DHT22;51386;53.082;8.816;2024-02-26T10:56:59;11.10;90.40
64888;DHT22;51386;53.082;8.816;2024-02-26T10:59:29;11.20;89.50
64888;DHT22;51386;53.082;8.816;2024-02-26T11:02:01;11.30;89.60
64888;DHT22;51386;53.082;8.816;2024-02-26T11:04:31;11.40;89.30
64888;DHT22;51386;53.082;8.816;2024-02-26T11:07:00;11.50;88.50
64888;DHT22;51386;53.082;8.816;2024-02-26T11:09:29;11.50;87.90
64888;DHT22;51386;53.082;8.816;2024-02-26T11:11:58;11.60;87.70
64888;DHT22;51386;53.082;8.816;2024-02-26T11:14:29;11.60;88.10
64888;DHT22;51386;53.082;8.816;2024-02-26T11:17:00;11.60;88.40
64888;DHT22;51386;53.082;8.816;2024-02-26T11:19:30;11.70;87.80
64888;DHT22;51386;53.082;8.816;2024-02-26T11:22:04;11.70;87.70
64888;DHT22;51386;53.082;8.816;2024-02-26T11:24:47;11.70;86.10
64888;DHT22;51386;53.082;8.816;2024-02-26T11:27:17;11.70;85.70
64888;DHT22;51386;53.082;8.816;2024-02-26T11:29:51;11.70;85.90
64888;DHT22;51386;53.082;8.816;2024-02-26T11:32:22;11.70;86.40
64888;DHT22;51386;53.082;8.816;2024-02-26T11:34:51;11.70;86.80
64888;DHT22;51386;53.082;8.816;2024-02-26T11:37:22;11.70;86.90
64888;DHT22;51386;53.082;8.816;2024-02-26T11:39:52;11.80;87.00
64888;DHT22;51386;53.082;8.816;2024-02-26T11:42:24;11.80;87.00
64888;DHT22;51386;53.082;8.816;2024-02-26T11:44:57;11.90;86.70
64888;DHT22;51386;53.082;8.816;2024-02-26T11:47:28;11.90;86.20
64888;DHT22;51386;53.082;8.816;2024-02-26T11:49:57;11.90;84.70
64888;DHT22;51386;53.082;8.816;2024-02-26T11:52:26;11.90;84.80
64888;DHT22;51386;53.082;8.816;2024-02-26T11:54:56;11.80;84.80
64888;DHT22;51386;53.082;8.816;2024-02-26T12:00:15;11.70;85.00
64888;DHT22;51386;53.082;8.816;2024-02-26T12:02:52;11.70;85.70
64888;DHT22;51386;53.082;8.816;2024-02-26T12:05:33;11.70;85.70
64888;DHT22;51386;53.082;8.816;2024-02-26T12:08:06;11.60;85.70
64888;DHT22;51386;53.082;8.816;2024-02-26T12:10:37;11.60;85.60
64888;DHT22;51386;53.082;8.816;2024-02-26T12:13:17;11.60;85.50
64888;DHT22;51386;53.082;8.816;2024-02-26T12:15:56;11.60;85.70
64888;DHT22;51386;53.082;8.816;2024-02-26T12:18:26;11.60;85.70
64888;DHT22;51386;53.082;8.816;2024-02-26T12:21:02;11.60;85.70
64888;DHT22;51386;53.082;8.816;2024-02-26T12:23:32;11.60;85.40
64888;DHT22;51386;53.082;8.816;2024-02-26T12:26:01;11.60;86.00
64888;DHT22;51386;53.082;8.816;2024-02-26T12:28:34;11.70;86.30
64888;DHT22;51386;53.082;8.816;2024-02-26T12:31:04;11.80;86.50
64888;DHT22;51386;53.082;8.816;2024-02-26T12:33:32;11.80;86.50
64888;DHT22;51386;53.082;8.816;2024-02-26T12:36:02;11.90;86.00
64888;DHT22;51386;53.082;8.816;2024-02-26T12:38:31;12.00;85.50
64888;DHT22;51386;53.082;8.816;2024-02-26T12:41:00;12.10;85.60
64888;DHT22;51386;53.082;8.816;2024-02-26T12:43:29;12.20;85.90
64888;DHT22;51386;53.082;8.816;2024-02-26T12:45:58;12.20;85.70
64888;DHT22;51386;53.082;8.816;2024-02-26T12:48:31;12.30;85.30
64888;DHT22;51386;53.082;8.816;2024-02-26T12:51:00;12.40;85.20
64888;DHT22;51386;53.082;8.816;2024-02-26T12:53:28;12.50;84.70
64888;DHT22;51386;53.082;8.816;2024-02-26T12:55:57;12.60;84.40
64888;DHT22;51386;53.082;8.816;2024-02-26T12:58:26;12.70;84.40
64888;DHT22;51386;53.082;8.816;2024-02-26T13:00:56;12.80;83.40
64888;DHT22;51386;53.082;8.816;2024-02-26T13:03:24;12.90;82.80
64888;DHT22;51386;53.082;8.816;2024-02-26T13:05:54;12.90;83.00
64888;DHT22;51386;53.082;8.816;2024-02-26T13:08:23;12.90;82.50
64888;DHT22;51386;53.082;8.816;2024-02-26T13:10:52;13.00;82.40
64888;DHT22;51386;53.082;8.816;2024-02-26T13:13:22;13.10;82.10
64888;DHT22;51386;53.082;8.816;2024-02-26T13:16:04;13.10;81.10
64888;DHT22;51386;53.082;8.816;2024-02-26T13:18:42;13.00;80.50
64888;DHT22;51386;53.082;8.816;2024-02-26T13:21:13;13.00;80.00
64888;DHT22;51386;53.082;8.816;2024-02-26T13:23:43;12.90;80.00
64888;DHT22;51386;53.082;8.816;2024-02-26T13:26:16;12.90;80.70
64888;DHT22;51386;53.082;8.816;2024-02-26T13:28:45;12.80;81.30
64888;DHT22;51386;53.082;8.816;2024-02-26T13:31:13;12.80;81.40
64888;DHT22;51386;53.082;8.816;2024-02-26T13:33:46;12.80;82.20
64888;DHT22;51386;53.082;8.816;2024-02-26T13:36:15;12.80;81.00
64888;DHT22;51386;53.082;8.816;2024-02-26T13:38:52;12.80;81.20
64888;DHT22;51386;53.082;8.816;2024-02-26T13:41:23;12.80;81.30
64888;DHT22;51386;53.082;8.816;2024-02-26T13:43:51;12.80;81.30
64888;DHT22;51386;53.082;8.816;2024-02-26T13:46:19;12.70;81.30
64888;DHT22;51386;53.082;8.816;2024-02-26T13:48:48;12.60;81.60
64888;DHT22;51386;53.082;8.816;2024-02-26T13:51:16;12.60;81.60
64888;DHT22;51386;53.082;8.816;2024-02-26T13:53:45;12.50;82.30
64888;DHT22;51386;53.082;8.816;2024-02-26T13:56:14;12.50;82.40
64888;DHT22;51386;53.082;8.816;2024-02-26T13:58:42;12.40;82.00
64888;DHT22;51386;53.082;8.816;2024-02-26T14:01:10;12.30;82.10
64888;DHT22;51386;53.082;8.816;2024-02-26T14:03:39;12.30;83.10
64888;DHT22;51386;53.082;8.816;2024-02-26T14:06:08;12.20;82.90
64888;DHT22;51386;53.082;8.816;2024-02-26T14:08:36;12.20;83.20
64888;DHT22;51386;53.082;8.816;2024-02-26T14:11:05;12.20;83.50
64888;DHT22;51386;53.082;8.816;2024-02-26T14:13:34;12.10;83.70
64888;DHT22;51386;53.082;8.816;2024-02-26T14:16:07;12.10;83.70
64888;DHT22;51386;53.082;8.816;2024-02-26T14:18:35;12.10;83.60
64888;DHT22;51386;53.082;8.816;2024-02-26T14:21:04;12.00;84.00
64888;DHT22;51386;53.082;8.816;2024-02-26T14:23:32;12.00;84.20
64888;DHT22;51386;53.082;8.816;2024-02-26T14:26:01;12.00;84.10
64888;DHT22;51386;53.082;8.816;2024-02-26T14:28:29;11.90;84.40
64888;DHT22;51386;53.082;8.816;2024-02-26T14:31:03;11.90;84.80
64888;DHT22;51386;53.082;8.816;2024-02-26T14:33:37;11.80;84.90
64888;DHT22;51386;53.082;8.816;2024-02-26T14:36:08;11.80;85.30
64888;DHT22;51386;53.082;8.816;2024-02-26T14:38:37;11.70;85.50
64888;DHT22;51386;53.082;8.816;2024-02-26T14:41:07;11.70;85.80
64888;DHT22;51386;53.082;8.816;2024-02-26T14:43:35;11.60;86.00
64888;DHT22;51386;53.082;8.816;2024-02-26T14:46:04;11.60;86.00
64888;DHT22;51386;53.082;8.816;2024-02-26T14:48:32;11.50;86.20
64888;DHT22;51386;53.082;8.816;2024-02-26T14:51:01;11.50;86.60
64888;DHT22;51386;53.082;8.816;2024-02-26T14:53:29;11.40;86.70
64888;DHT22;51386;53.082;8.816;2024-02-26T14:55:58;11.40;86.80
64888;DHT22;51386;53.082;8.816;2024-02-26T14:58:26;11.30;86.70
64888;DHT22;51386;53.082;8.816;2024-02-26T15:00:54;11.30;87.60
64888;DHT22;51386;53.082;8.816;2024-02-26T15:03:23;11.20;86.80
64888;DHT22;51386;53.082;8.816;2024-02-26T15:05:51;11.10;87.00
64888;DHT22;51386;53.082;8.816;2024-02-26T15:08:20;11.00;87.10
64888;DHT22;51386;53.082;8.816;2024-02-26T15:10:49;10.90;87.60
64888;DHT22;51386;53.082;8.816;2024-02-26T15:13:17;10.80;88.20
64888;DHT22;51386;53.082;8.816;2024-02-26T15:15:46;10.80;88.20
64888;DHT22;51386;53.082;8.816;2024-02-26T15:18:14;10.70;88.30
64888;DHT22;51386;53.082;8.816;2024-02-26T15:20:44;10.70;88.30
64888;DHT22;51386;53.082;8.816;2024-02-26T15:23:13;10.70;88.40
64888;DHT22;51386;53.082;8.816;2024-02-26T15:25:42;10.70;88.50
64888;DHT22;51386;53.082;8.816;2024-02-26T15:28:10;10.70;88.50
64888;DHT22;51386;53.082;8.816;2024-02-26T15:30:42;10.60;88.70
64888;DHT22;51386;53.082;8.816;2024-02-26T15:33:10;10.60;88.20
64888;DHT22;51386;53.082;8.816;2024-02-26T15:35:40;10.50;88.20
64888;DHT22;51386;53.082;8.816;2024-02-26T15:38:13;10.50;88.50
64888;DHT22;51386;53.082;8.816;2024-02-26T15:40:41;10.40;88.50
64888;DHT22;51386;53.082;8.816;2024-02-26T15:43:10;10.40;88.30
64888;DHT22;51386;53.082;8.816;2024-02-26T15:45:41;10.30;88.40
64888;DHT22;51386;53.082;8.816;2024-02-26T15:48:10;10.30;88.60
64888;DHT22;51386;53.082;8.816;2024-02-26T15:50:38;10.20;88.80
64888;DHT22;51386;53.082;8.816;2024-02-26T15:53:09;10.10;89.00
64888;DHT22;51386;53.082;8.816;2024-02-26T15:55:37;10.10;89.40